sensor_id;sensor_type;location;lat;lon;timestamp;P1;durP1;ratioP1;P2;durP2;ratioP2
43248;SDS011;29216;51.248;6.808;2023-08-30T00:00:52;7.80;;;6.72;;
43248;SDS011;29216;51.248;6.808;2023-08-30T00:03:18;8.30;;;6.82;;
43248;SDS011;29216;51.248;6.808;2023-08-30T00:05:44;11.10;;;7.13;;
43248;SDS011;29216;51.248;6.808;2023-08-30T00:08:10;8.52;;;6.57;;
43248;SDS011;29216;51.248;6.808;2023-08-30T00:10:38;9.40;;;6.50;;
43248;SDS011;29216;51.248;6.808;2023-08-30T00:13:04;7.43;;;6.18;;
43248;SDS011;29216;51.248;6.808;2023-08-30T00:15:30;8.95;;;6.63;;
43248;SDS011;29216;51.248;6.808;2023-08-30T00:17:56;8.25;;;6.57;;
43248;SDS011;29216;51.248;6.808;2023-08-30T00:20:22;8.80;;;6.88;;
43248;SDS011;29216;51.248;6.808;2023-08-30T00:22:48;8.73;;;7.22;;
43248;SDS011;29216;51.248;6.808;2023-08-30T00:25:15;11.18;;;7.20;;
43248;SDS011;29216;51.248;6.808;2023-08-30T00:27:41;8.60;;;7.13;;
43248;SDS011;29216;51.248;6.808;2023-08-30T00:30:07;8.80;;;7.45;;
43248;SDS011;29216;51.248;6.808;2023-08-30T00:32:34;11.02;;;8.00;;
43248;SDS011;29216;51.248;6.808;2023-08-30T00:35:00;9.93;;;8.10;;
43248;SDS011;29216;51.248;6.808;2023-08-30T00:37:26;8.43;;;7.25;;
43248;SDS011;29216;51.248;6.808;2023-08-30T00:39:52;10.50;;;8.35;;
43248;SDS011;29216;51.248;6.808;2023-08-30T00:42:17;10.02;;;8.77;;
43248;SDS011;29216;51.248;6.808;2023-08-30T00:44:43;9.25;;;8.32;;
43248;SDS011;29216;51.248;6.808;2023-08-30T00:47:09;9.50;;;8.40;;
43248;SDS011;29216;51.248;6.808;2023-08-30T00:49:36;12.82;;;9.10;;
43248;SDS011;29216;51.248;6.808;2023-08-30T00:52:02;11.52;;;9.27;;
43248;SDS011;29216;51.248;6.808;2023-08-30T00:54:29;10.50;;;9.35;;
43248;SDS011;29216;51.248;6.808;2023-08-30T00:56:55;11.18;;;9.95;;
43248;SDS011;29216;51.248;6.808;2023-08-30T00:59:22;12.73;;;10.18;;
43248;SDS011;29216;51.248;6.808;2023-08-30T01:01:48;11.25;;;9.95;;
43248;SDS011;29216;51.248;6.808;2023-08-30T01:04:14;13.60;;;10.63;;
43248;SDS011;29216;51.248;6.808;2023-08-30T01:06:41;12.68;;;11.35;;
43248;SDS011;29216;51.248;6.808;2023-08-30T01:09:07;15.40;;;12.35;;
43248;SDS011;29216;51.248;6.808;2023-08-30T01:14:03;13.25;;;11.07;;
43248;SDS011;29216;51.248;6.808;2023-08-30T01:16:30;14.35;;;12.85;;
43248;SDS011;29216;51.248;6.808;2023-08-30T01:18:57;14.82;;;12.35;;
43248;SDS011;29216;51.248;6.808;2023-08-30T01:24:09;17.58;;;13.45;;
43248;SDS011;29216;51.248;6.808;2023-08-30T01:29:05;18.05;;;14.30;;
43248;SDS011;29216;51.248;6.808;2023-08-30T01:31:32;17.33;;;13.95;;
43248;SDS011;29216;51.248;6.808;2023-08-30T01:33:58;17.63;;;14.88;;
43248;SDS011;29216;51.248;6.808;2023-08-30T01:36:24;16.98;;;15.00;;
43248;SDS011;29216;51.248;6.808;2023-08-30T01:38:51;16.25;;;13.80;;
43248;SDS011;29216;51.248;6.808;2023-08-30T01:41:17;18.58;;;14.15;;
43248;SDS011;29216;51.248;6.808;2023-08-30T01:43:43;17.08;;;14.52;;
43248;SDS011;29216;51.248;6.808;2023-08-30T01:46:09;18.67;;;14.80;;
43248;SDS011;29216;51.248;6.808;2023-08-30T01:48:36;16.60;;;13.98;;
43248;SDS011;29216;51.248;6.808;2023-08-30T01:51:02;15.55;;;13.85;;
43248;SDS011;29216;51.248;6.808;2023-08-30T01:53:29;15.23;;;13.57;;
43248;SDS011;29216;51.248;6.808;2023-08-30T01:55:56;18.58;;;14.40;;
43248;SDS011;29216;51.248;6.808;2023-08-30T01:58:22;18.00;;;14.40;;
43248;SDS011;29216;51.248;6.808;2023-08-30T02:00:48;15.27;;;13.55;;
43248;SDS011;29216;51.248;6.808;2023-08-30T02:03:14;15.25;;;13.43;;
43248;SDS011;29216;51.248;6.808;2023-08-30T02:06:26;15.50;;;13.15;;
43248;SDS011;29216;51.248;6.808;2023-08-30T02:08:29;17.42;;;14.52;;
43248;SDS011;29216;51.248;6.808;2023-08-30T02:10:59;17.75;;;14.35;;
43248;SDS011;29216;51.248;6.808;2023-08-30T02:13:27;19.90;;;15.10;;
43248;SDS011;29216;51.248;6.808;2023-08-30T02:15:56;18.42;;;14.68;;
43248;SDS011;29216;51.248;6.808;2023-08-30T02:18:24;16.48;;;14.55;;
43248;SDS011;29216;51.248;6.808;2023-08-30T02:20:51;18.65;;;15.23;;
43248;SDS011;29216;51.248;6.808;2023-08-30T02:23:17;18.77;;;15.07;;
43248;SDS011;29216;51.248;6.808;2023-08-30T02:25:43;18.88;;;14.30;;
43248;SDS011;29216;51.248;6.808;2023-08-30T02:28:09;17.35;;;14.85;;
43248;SDS011;29216;51.248;6.808;2023-08-30T02:30:35;16.90;;;15.10;;
43248;SDS011;29216;51.248;6.808;2023-08-30T02:33:01;21.88;;;14.75;;
43248;SDS011;29216;51.248;6.808;2023-08-30T02:35:27;22.60;;;16.35;;
43248;SDS011;29216;51.248;6.808;2023-08-30T02:37:53;22.02;;;17.70;;
43248;SDS011;29216;51.248;6.808;2023-08-30T02:40:19;26.58;;;19.98;;
43248;SDS011;29216;51.248;6.808;2023-08-30T02:42:45;23.90;;;18.38;;
43248;SDS011;29216;51.248;6.808;2023-08-30T02:45:11;24.40;;;18.40;;
43248;SDS011;29216;51.248;6.808;2023-08-30T02:47:37;25.40;;;20.02;;
43248;SDS011;29216;51.248;6.808;2023-08-30T02:50:03;25.23;;;21.38;;
43248;SDS011;29216;51.248;6.808;2023-08-30T02:52:29;24.83;;;19.58;;
43248;SDS011;29216;51.248;6.808;2023-08-30T02:54:55;24.75;;;19.33;;
43248;SDS011;29216;51.248;6.808;2023-08-30T02:57:21;24.33;;;19.60;;
43248;SDS011;29216;51.248;6.808;2023-08-30T02:59:47;22.55;;;18.30;;
43248;SDS011;29216;51.248;6.808;2023-08-30T03:02:13;28.95;;;19.33;;
43248;SDS011;29216;51.248;6.808;2023-08-30T03:04:39;28.80;;;19.95;;
43248;SDS011;29216;51.248;6.808;2023-08-30T03:07:05;26.42;;;20.23;;
43248;SDS011;29216;51.248;6.808;2023-08-30T03:09:31;26.85;;;19.58;;
43248;SDS011;29216;51.248;6.808;2023-08-30T03:11:57;23.98;;;18.60;;
43248;SDS011;29216;51.248;6.808;2023-08-30T03:14:23;25.00;;;18.23;;
43248;SDS011;29216;51.248;6.808;2023-08-30T03:16:49;23.67;;;18.52;;
43248;SDS011;29216;51.248;6.808;2023-08-30T03:19:14;23.45;;;18.67;;
43248;SDS011;29216;51.248;6.808;2023-08-30T03:21:42;26.42;;;19.50;;
43248;SDS011;29216;51.248;6.808;2023-08-30T03:24:08;25.60;;;18.08;;
43248;SDS011;29216;51.248;6.808;2023-08-30T03:26:35;22.38;;;17.52;;
43248;SDS011;29216;51.248;6.808;2023-08-30T03:29:01;25.70;;;19.23;;
43248;SDS011;29216;51.248;6.808;2023-08-30T03:31:27;23.45;;;17.77;;
43248;SDS011;29216;51.248;6.808;2023-08-30T03:33:53;25.20;;;18.27;;
43248;SDS011;29216;51.248;6.808;2023-08-30T03:36:19;21.35;;;17.40;;
43248;SDS011;29216;51.248;6.808;2023-08-30T03:38:45;21.45;;;18.33;;
43248;SDS011;29216;51.248;6.808;2023-08-30T03:41:11;20.77;;;17.48;;
43248;SDS011;29216;51.248;6.808;2023-08-30T03:43:37;20.67;;;17.58;;
43248;SDS011;29216;51.248;6.808;2023-08-30T03:46:03;22.23;;;17.58;;
43248;SDS011;29216;51.248;6.808;2023-08-30T03:48:30;22.33;;;17.55;;
43248;SDS011;29216;51.248;6.808;2023-08-30T03:50:56;22.25;;;18.15;;
43248;SDS011;29216;51.248;6.808;2023-08-30T03:53:22;21.88;;;16.98;;
43248;SDS011;29216;51.248;6.808;2023-08-30T03:55:48;20.95;;;16.95;;
43248;SDS011;29216;51.248;6.808;2023-08-30T03:58:15;19.40;;;17.02;;
43248;SDS011;29216;51.248;6.808;2023-08-30T04:00:41;21.02;;;17.42;;
43248;SDS011;29216;51.248;6.808;2023-08-30T04:03:08;22.23;;;17.63;;
43248;SDS011;29216;51.248;6.808;2023-08-30T04:05:34;21.90;;;17.10;;
43248;SDS011;29216;51.248;6.808;2023-08-30T04:08:01;19.38;;;16.98;;
43248;SDS011;29216;51.248;6.808;2023-08-30T04:10:27;21.60;;;17.27;;
43248;SDS011;29216;51.248;6.808;2023-08-30T04:12:53;22.38;;;16.85;;
43248;SDS011;29216;51.248;6.808;2023-08-30T04:15:19;21.42;;;16.48;;
43248;SDS011;29216;51.248;6.808;2023-08-30T04:17:45;21.33;;;17.17;;
43248;SDS011;29216;51.248;6.808;2023-08-30T04:20:11;20.60;;;17.13;;
43248;SDS011;29216;51.248;6.808;2023-08-30T04:22:37;21.58;;;17.27;;
43248;SDS011;29216;51.248;6.808;2023-08-30T04:25:03;20.70;;;16.15;;
43248;SDS011;29216;51.248;6.808;2023-08-30T04:27:29;23.30;;;17.55;;
43248;SDS011;29216;51.248;6.808;2023-08-30T04:29:55;20.95;;;17.05;;
43248;SDS011;29216;51.248;6.808;2023-08-30T04:32:21;30.77;;;19.05;;
43248;SDS011;29216;51.248;6.808;2023-08-30T04:34:47;22.10;;;17.77;;
43248;SDS011;29216;51.248;6.808;2023-08-30T04:37:13;25.90;;;19.20;;
43248;SDS011;29216;51.248;6.808;2023-08-30T04:39:40;25.27;;;18.90;;
43248;SDS011;29216;51.248;6.808;2023-08-30T04:42:06;23.92;;;18.58;;
43248;SDS011;29216;51.248;6.808;2023-08-30T04:44:32;25.52;;;19.20;;
43248;SDS011;29216;51.248;6.808;2023-08-30T04:46:58;22.70;;;18.25;;
43248;SDS011;29216;51.248;6.808;2023-08-30T04:49:24;26.85;;;21.13;;
43248;SDS011;29216;51.248;6.808;2023-08-30T04:51:50;25.83;;;20.55;;
43248;SDS011;29216;51.248;6.808;2023-08-30T04:54:16;25.85;;;20.63;;
43248;SDS011;29216;51.248;6.808;2023-08-30T04:56:42;28.67;;;21.33;;
43248;SDS011;29216;51.248;6.808;2023-08-30T04:59:08;27.25;;;21.52;;
43248;SDS011;29216;51.248;6.808;2023-08-30T05:01:34;24.65;;;20.50;;
43248;SDS011;29216;51.248;6.808;2023-08-30T05:04:00;26.70;;;21.42;;
43248;SDS011;29216;51.248;6.808;2023-08-30T05:06:26;28.80;;;20.83;;
43248;SDS011;29216;51.248;6.808;2023-08-30T05:08:52;26.38;;;20.15;;
43248;SDS011;29216;51.248;6.808;2023-08-30T05:11:18;27.83;;;21.00;;
43248;SDS011;29216;51.248;6.808;2023-08-30T05:13:44;29.15;;;21.63;;
43248;SDS011;29216;51.248;6.808;2023-08-30T05:16:10;28.98;;;20.15;;
43248;SDS011;29216;51.248;6.808;2023-08-30T05:18:36;29.63;;;21.33;;
43248;SDS011;29216;51.248;6.808;2023-08-30T05:21:02;28.00;;;21.40;;
43248;SDS011;29216;51.248;6.808;2023-08-30T05:23:28;23.10;;;20.50;;
43248;SDS011;29216;51.248;6.808;2023-08-30T05:25:54;23.77;;;19.75;;
43248;SDS011;29216;51.248;6.808;2023-08-30T05:28:20;26.50;;;22.30;;
43248;SDS011;29216;51.248;6.808;2023-08-30T05:30:46;26.70;;;20.38;;
43248;SDS011;29216;51.248;6.808;2023-08-30T05:33:12;27.48;;;21.15;;
43248;SDS011;29216;51.248;6.808;2023-08-30T05:35:38;30.27;;;21.65;;
43248;SDS011;29216;51.248;6.808;2023-08-30T05:38:04;27.55;;;21.67;;
43248;SDS011;29216;51.248;6.808;2023-08-30T05:40:30;30.35;;;22.63;;
43248;SDS011;29216;51.248;6.808;2023-08-30T05:42:56;26.50;;;21.90;;
43248;SDS011;29216;51.248;6.808;2023-08-30T05:45:22;27.02;;;21.08;;
43248;SDS011;29216;51.248;6.808;2023-08-30T05:47:48;31.25;;;21.42;;
43248;SDS011;29216;51.248;6.808;2023-08-30T05:50:14;29.40;;;21.52;;
43248;SDS011;29216;51.248;6.808;2023-08-30T05:52:40;28.23;;;20.33;;
43248;SDS011;29216;51.248;6.808;2023-08-30T05:55:09;28.67;;;21.15;;
43248;SDS011;29216;51.248;6.808;2023-08-30T05:57:35;27.30;;;21.02;;
43248;SDS011;29216;51.248;6.808;2023-08-30T06:00:02;25.58;;;19.15;;
43248;SDS011;29216;51.248;6.808;2023-08-30T06:02:29;24.30;;;19.13;;
43248;SDS011;29216;51.248;6.808;2023-08-30T06:04:55;23.80;;;18.02;;
43248;SDS011;29216;51.248;6.808;2023-08-30T06:07:21;24.20;;;18.42;;
43248;SDS011;29216;51.248;6.808;2023-08-30T06:09:47;20.70;;;16.98;;
43248;SDS011;29216;51.248;6.808;2023-08-30T06:12:14;22.10;;;17.30;;
43248;SDS011;29216;51.248;6.808;2023-08-30T06:14:40;20.95;;;16.52;;
43248;SDS011;29216;51.248;6.808;2023-08-30T06:17:06;19.35;;;16.02;;
43248;SDS011;29216;51.248;6.808;2023-08-30T06:19:32;17.52;;;15.63;;
43248;SDS011;29216;51.248;6.808;2023-08-30T06:21:58;19.73;;;14.93;;
43248;SDS011;29216;51.248;6.808;2023-08-30T06:24:24;19.67;;;14.52;;
43248;SDS011;29216;51.248;6.808;2023-08-30T06:26:50;16.02;;;13.55;;
43248;SDS011;29216;51.248;6.808;2023-08-30T06:29:16;16.45;;;14.00;;
43248;SDS011;29216;51.248;6.808;2023-08-30T06:31:42;13.95;;;11.82;;
43248;SDS011;29216;51.248;6.808;2023-08-30T06:34:10;15.07;;;12.05;;
43248;SDS011;29216;51.248;6.808;2023-08-30T06:36:36;13.95;;;11.48;;
43248;SDS011;29216;51.248;6.808;2023-08-30T06:39:02;13.40;;;11.02;;
43248;SDS011;29216;51.248;6.808;2023-08-30T06:41:28;17.88;;;10.55;;
43248;SDS011;29216;51.248;6.808;2023-08-30T06:43:54;12.38;;;9.88;;
43248;SDS011;29216;51.248;6.808;2023-08-30T06:46:21;12.73;;;8.90;;
43248;SDS011;29216;51.248;6.808;2023-08-30T06:48:47;13.55;;;9.27;;
43248;SDS011;29216;51.248;6.808;2023-08-30T06:51:13;10.18;;;7.95;;
43248;SDS011;29216;51.248;6.808;2023-08-30T06:53:39;9.13;;;8.18;;
43248;SDS011;29216;51.248;6.808;2023-08-30T06:56:05;9.23;;;7.60;;
43248;SDS011;29216;51.248;6.808;2023-08-30T06:58:31;13.23;;;8.07;;
43248;SDS011;29216;51.248;6.808;2023-08-30T07:00:57;13.52;;;7.85;;
43248;SDS011;29216;51.248;6.808;2023-08-30T07:03:23;10.70;;;7.95;;
43248;SDS011;29216;51.248;6.808;2023-08-30T07:05:53;8.40;;;7.15;;
43248;SDS011;29216;51.248;6.808;2023-08-30T07:08:19;11.75;;;7.38;;
43248;SDS011;29216;51.248;6.808;2023-08-30T07:10:45;8.43;;;6.90;;
43248;SDS011;29216;51.248;6.808;2023-08-30T07:13:11;12.70;;;6.68;;
43248;SDS011;29216;51.248;6.808;2023-08-30T07:15:41;8.77;;;6.85;;
43248;SDS011;29216;51.248;6.808;2023-08-30T07:18:07;10.45;;;6.55;;
43248;SDS011;29216;51.248;6.808;2023-08-30T07:20:34;8.05;;;6.28;;
43248;SDS011;29216;51.248;6.808;2023-08-30T07:23:01;8.93;;;6.90;;
43248;SDS011;29216;51.248;6.808;2023-08-30T07:25:27;9.88;;;6.50;;
43248;SDS011;29216;51.248;6.808;2023-08-30T07:27:53;10.63;;;6.80;;
43248;SDS011;29216;51.248;6.808;2023-08-30T07:30:19;9.68;;;6.40;;
43248;SDS011;29216;51.248;6.808;2023-08-30T07:32:45;8.52;;;6.18;;
43248;SDS011;29216;51.248;6.808;2023-08-30T07:35:12;7.30;;;5.53;;
43248;SDS011;29216;51.248;6.808;2023-08-30T07:37:38;8.57;;;6.43;;
43248;SDS011;29216;51.248;6.808;2023-08-30T07:40:04;8.00;;;5.63;;
43248;SDS011;29216;51.248;6.808;2023-08-30T07:42:31;11.75;;;6.90;;
43248;SDS011;29216;51.248;6.808;2023-08-30T07:44:57;9.13;;;6.30;;
43248;SDS011;29216;51.248;6.808;2023-08-30T07:47:23;10.57;;;6.32;;
43248;SDS011;29216;51.248;6.808;2023-08-30T07:49:49;12.02;;;6.28;;
43248;SDS011;29216;51.248;6.808;2023-08-30T07:52:15;11.40;;;6.47;;
43248;SDS011;29216;51.248;6.808;2023-08-30T07:54:41;11.35;;;6.53;;
43248;SDS011;29216;51.248;6.808;2023-08-30T07:57:07;8.38;;;5.85;;
43248;SDS011;29216;51.248;6.808;2023-08-30T07:59:36;7.72;;;5.78;;
43248;SDS011;29216;51.248;6.808;2023-08-30T08:02:03;7.50;;;5.60;;
43248;SDS011;29216;51.248;6.808;2023-08-30T08:04:31;9.70;;;5.78;;
43248;SDS011;29216;51.248;6.808;2023-08-30T08:06:57;8.23;;;5.15;;
43248;SDS011;29216;51.248;6.808;2023-08-30T08:09:23;10.05;;;5.63;;
43248;SDS011;29216;51.248;6.808;2023-08-30T08:11:49;8.75;;;5.30;;
43248;SDS011;29216;51.248;6.808;2023-08-30T08:14:15;9.43;;;5.38;;
43248;SDS011;29216;51.248;6.808;2023-08-30T08:16:41;7.10;;;4.95;;
43248;SDS011;29216;51.248;6.808;2023-08-30T08:19:07;5.90;;;4.63;;
43248;SDS011;29216;51.248;6.808;2023-08-30T08:21:33;7.60;;;4.50;;
43248;SDS011;29216;51.248;6.808;2023-08-30T08:24:00;6.93;;;4.50;;
43248;SDS011;29216;51.248;6.808;2023-08-30T08:26:26;8.30;;;3.92;;
43248;SDS011;29216;51.248;6.808;2023-08-30T08:28:53;7.00;;;4.35;;
43248;SDS011;29216;51.248;6.808;2023-08-30T08:31:20;8.75;;;4.53;;
43248;SDS011;29216;51.248;6.808;2023-08-30T08:33:46;6.57;;;4.07;;
43248;SDS011;29216;51.248;6.808;2023-08-30T08:36:12;7.22;;;3.63;;
43248;SDS011;29216;51.248;6.808;2023-08-30T08:38:38;6.25;;;4.18;;
43248;SDS011;29216;51.248;6.808;2023-08-30T08:41:07;4.82;;;3.80;;
43248;SDS011;29216;51.248;6.808;2023-08-30T08:43:37;6.45;;;3.80;;
43248;SDS011;29216;51.248;6.808;2023-08-30T08:46:05;6.47;;;3.88;;
43248;SDS011;29216;51.248;6.808;2023-08-30T08:48:31;10.40;;;3.88;;
43248;SDS011;29216;51.248;6.808;2023-08-30T08:50:58;7.22;;;3.92;;
43248;SDS011;29216;51.248;6.808;2023-08-30T08:53:25;6.68;;;4.13;;
43248;SDS011;29216;51.248;6.808;2023-08-30T08:55:51;4.45;;;3.50;;
43248;SDS011;29216;51.248;6.808;2023-08-30T08:58:18;5.47;;;3.67;;
43248;SDS011;29216;51.248;6.808;2023-08-30T09:00:44;5.43;;;3.65;;
43248;SDS011;29216;51.248;6.808;2023-08-30T09:03:10;6.40;;;3.60;;
43248;SDS011;29216;51.248;6.808;2023-08-30T09:05:39;5.93;;;3.60;;
43248;SDS011;29216;51.248;6.808;2023-08-30T09:08:06;5.85;;;3.58;;
43248;SDS011;29216;51.248;6.808;2023-08-30T09:10:32;6.40;;;3.67;;
43248;SDS011;29216;51.248;6.808;2023-08-30T09:12:58;6.63;;;3.45;;
43248;SDS011;29216;51.248;6.808;2023-08-30T09:15:34;5.95;;;3.67;;
43248;SDS011;29216;51.248;6.808;2023-08-30T09:18:03;7.20;;;3.63;;
43248;SDS011;29216;51.248;6.808;2023-08-30T09:20:29;4.88;;;3.80;;
43248;SDS011;29216;51.248;6.808;2023-08-30T09:22:55;5.78;;;3.10;;
43248;SDS011;29216;51.248;6.808;2023-08-30T09:25:25;5.57;;;3.47;;
43248;SDS011;29216;51.248;6.808;2023-08-30T09:27:51;6.93;;;3.72;;
43248;SDS011;29216;51.248;6.808;2023-08-30T09:30:23;6.07;;;3.28;;
43248;SDS011;29216;51.248;6.808;2023-08-30T09:32:49;6.80;;;4.00;;
43248;SDS011;29216;51.248;6.808;2023-08-30T09:35:15;6.68;;;4.20;;
43248;SDS011;29216;51.248;6.808;2023-08-30T09:37:43;7.18;;;3.88;;
43248;SDS011;29216;51.248;6.808;2023-08-30T09:40:09;6.13;;;4.05;;
43248;SDS011;29216;51.248;6.808;2023-08-30T09:42:40;9.38;;;3.92;;
43248;SDS011;29216;51.248;6.808;2023-08-30T09:45:08;5.72;;;3.78;;
43248;SDS011;29216;51.248;6.808;2023-08-30T09:47:45;6.30;;;3.70;;
43248;SDS011;29216;51.248;6.808;2023-08-30T09:50:12;8.40;;;5.25;;
43248;SDS011;29216;51.248;6.808;2023-08-30T09:52:38;4.20;;;3.40;;
43248;SDS011;29216;51.248;6.808;2023-08-30T09:55:04;7.68;;;4.82;;
43248;SDS011;29216;51.248;6.808;2023-08-30T09:57:31;7.55;;;4.15;;
43248;SDS011;29216;51.248;6.808;2023-08-30T09:59:57;10.25;;;4.20;;
43248;SDS011;29216;51.248;6.808;2023-08-30T10:02:23;7.22;;;4.85;;
43248;SDS011;29216;51.248;6.808;2023-08-30T10:04:49;9.55;;;5.78;;
43248;SDS011;29216;51.248;6.808;2023-08-30T10:07:16;8.27;;;4.70;;
43248;SDS011;29216;51.248;6.808;2023-08-30T10:09:43;9.88;;;4.18;;
43248;SDS011;29216;51.248;6.808;2023-08-30T10:12:09;11.20;;;5.43;;
43248;SDS011;29216;51.248;6.808;2023-08-30T10:14:36;5.63;;;4.10;;
43248;SDS011;29216;51.248;6.808;2023-08-30T10:17:02;7.63;;;4.22;;
43248;SDS011;29216;51.248;6.808;2023-08-30T10:19:29;7.50;;;4.10;;
43248;SDS011;29216;51.248;6.808;2023-08-30T10:24:23;6.22;;;3.75;;
43248;SDS011;29216;51.248;6.808;2023-08-30T10:26:50;9.95;;;3.80;;
43248;SDS011;29216;51.248;6.808;2023-08-30T10:29:16;4.85;;;3.60;;
43248;SDS011;29216;51.248;6.808;2023-08-30T10:31:43;6.75;;;3.72;;
43248;SDS011;29216;51.248;6.808;2023-08-30T10:34:15;4.10;;;3.40;;
43248;SDS011;29216;51.248;6.808;2023-08-30T10:36:42;5.63;;;3.37;;
43248;SDS011;29216;51.248;6.808;2023-08-30T10:39:12;6.72;;;4.07;;
43248;SDS011;29216;51.248;6.808;2023-08-30T10:41:39;8.60;;;3.13;;
43248;SDS011;29216;51.248;6.808;2023-08-30T10:44:19;4.50;;;3.42;;
43248;SDS011;29216;51.248;6.808;2023-08-30T10:46:51;9.88;;;3.45;;
43248;SDS011;29216;51.248;6.808;2023-08-30T10:49:18;6.25;;;3.53;;
43248;SDS011;29216;51.248;6.808;2023-08-30T10:51:44;5.00;;;3.80;;
43248;SDS011;29216;51.248;6.808;2023-08-30T10:54:15;5.95;;;4.00;;
43248;SDS011;29216;51.248;6.808;2023-08-30T10:59:19;5.20;;;3.60;;
43248;SDS011;29216;51.248;6.808;2023-08-30T11:01:46;8.30;;;3.88;;
43248;SDS011;29216;51.248;6.808;2023-08-30T11:04:14;5.82;;;3.78;;
43248;SDS011;29216;51.248;6.808;2023-08-30T11:06:41;6.07;;;4.30;;
43248;SDS011;29216;51.248;6.808;2023-08-30T11:09:08;7.38;;;3.67;;
43248;SDS011;29216;51.248;6.808;2023-08-30T11:11:38;5.90;;;3.90;;
43248;SDS011;29216;51.248;6.808;2023-08-30T11:14:07;6.30;;;3.97;;
43248;SDS011;29216;51.248;6.808;2023-08-30T11:16:37;6.28;;;3.65;;
43248;SDS011;29216;51.248;6.808;2023-08-30T11:19:03;6.50;;;4.20;;
43248;SDS011;29216;51.248;6.808;2023-08-30T11:21:33;5.40;;;3.75;;
43248;SDS011;29216;51.248;6.808;2023-08-30T11:24:00;5.13;;;3.50;;
43248;SDS011;29216;51.248;6.808;2023-08-30T11:26:26;5.30;;;3.67;;
43248;SDS011;29216;51.248;6.808;2023-08-30T11:28:52;5.07;;;3.88;;
43248;SDS011;29216;51.248;6.808;2023-08-30T11:31:21;5.53;;;3.92;;
43248;SDS011;29216;51.248;6.808;2023-08-30T11:33:53;6.10;;;4.07;;
43248;SDS011;29216;51.248;6.808;2023-08-30T11:36:23;5.15;;;4.05;;
43248;SDS011;29216;51.248;6.808;2023-08-30T11:38:49;5.57;;;4.20;;
43248;SDS011;29216;51.248;6.808;2023-08-30T11:41:16;5.75;;;4.07;;
43248;SDS011;29216;51.248;6.808;2023-08-30T11:43:42;10.68;;;4.93;;
43248;SDS011;29216;51.248;6.808;2023-08-30T11:46:08;7.60;;;4.82;;
43248;SDS011;29216;51.248;6.808;2023-08-30T11:48:35;6.32;;;4.60;;
43248;SDS011;29216;51.248;6.808;2023-08-30T11:51:01;7.03;;;4.60;;
43248;SDS011;29216;51.248;6.808;2023-08-30T11:53:27;6.60;;;4.43;;
43248;SDS011;29216;51.248;6.808;2023-08-30T11:55:53;6.65;;;4.60;;
43248;SDS011;29216;51.248;6.808;2023-08-30T11:58:20;9.38;;;6.40;;
43248;SDS011;29216;51.248;6.808;2023-08-30T12:00:46;6.65;;;4.70;;
43248;SDS011;29216;51.248;6.808;2023-08-30T12:03:15;6.35;;;4.60;;
43248;SDS011;29216;51.248;6.808;2023-08-30T12:05:47;8.15;;;5.75;;
43248;SDS011;29216;51.248;6.808;2023-08-30T12:08:26;6.88;;;5.18;;
43248;SDS011;29216;51.248;6.808;2023-08-30T12:10:55;6.47;;;5.10;;
43248;SDS011;29216;51.248;6.808;2023-08-30T12:13:24;5.70;;;5.10;;
43248;SDS011;29216;51.248;6.808;2023-08-30T12:15:54;7.40;;;4.72;;
43248;SDS011;29216;51.248;6.808;2023-08-30T12:18:20;7.35;;;4.20;;
43248;SDS011;29216;51.248;6.808;2023-08-30T12:20:51;6.63;;;4.00;;
43248;SDS011;29216;51.248;6.808;2023-08-30T12:23:21;5.18;;;3.70;;
43248;SDS011;29216;51.248;6.808;2023-08-30T12:25:57;7.25;;;4.20;;
43248;SDS011;29216;51.248;6.808;2023-08-30T12:28:24;5.05;;;3.88;;
43248;SDS011;29216;51.248;6.808;2023-08-30T12:30:50;4.18;;;3.55;;
43248;SDS011;29216;51.248;6.808;2023-08-30T12:33:16;4.95;;;4.07;;
43248;SDS011;29216;51.248;6.808;2023-08-30T12:35:43;4.53;;;3.85;;
43248;SDS011;29216;51.248;6.808;2023-08-30T12:38:09;4.88;;;3.75;;
43248;SDS011;29216;51.248;6.808;2023-08-30T12:40:36;4.78;;;3.95;;
43248;SDS011;29216;51.248;6.808;2023-08-30T12:43:02;4.72;;;3.95;;
43248;SDS011;29216;51.248;6.808;2023-08-30T12:45:29;4.85;;;4.13;;
43248;SDS011;29216;51.248;6.808;2023-08-30T12:47:55;6.45;;;4.80;;
43248;SDS011;29216;51.248;6.808;2023-08-30T12:50:23;5.65;;;4.00;;
43248;SDS011;29216;51.248;6.808;2023-08-30T12:52:49;5.00;;;4.20;;
43248;SDS011;29216;51.248;6.808;2023-08-30T12:55:15;6.53;;;5.50;;
43248;SDS011;29216;51.248;6.808;2023-08-30T12:57:42;5.68;;;4.90;;
43248;SDS011;29216;51.248;6.808;2023-08-30T13:00:11;6.25;;;4.80;;
43248;SDS011;29216;51.248;6.808;2023-08-30T13:02:37;7.13;;;4.30;;
43248;SDS011;29216;51.248;6.808;2023-08-30T13:05:04;5.97;;;4.45;;
43248;SDS011;29216;51.248;6.808;2023-08-30T13:07:30;5.80;;;4.90;;
43248;SDS011;29216;51.248;6.808;2023-08-30T13:09:56;5.38;;;4.38;;
43248;SDS011;29216;51.248;6.808;2023-08-30T13:12:22;7.53;;;5.15;;
43248;SDS011;29216;51.248;6.808;2023-08-30T13:14:47;6.95;;;4.57;;
43248;SDS011;29216;51.248;6.808;2023-08-30T13:17:13;5.80;;;4.60;;
43248;SDS011;29216;51.248;6.808;2023-08-30T13:19:42;6.82;;;4.55;;
43248;SDS011;29216;51.248;6.808;2023-08-30T13:22:08;4.40;;;4.00;;
43248;SDS011;29216;51.248;6.808;2023-08-30T13:24:35;4.68;;;4.13;;
43248;SDS011;29216;51.248;6.808;2023-08-30T13:27:01;4.20;;;3.80;;
43248;SDS011;29216;51.248;6.808;2023-08-30T13:29:27;5.15;;;3.50;;
43248;SDS011;29216;51.248;6.808;2023-08-30T13:31:53;3.70;;;3.40;;
43248;SDS011;29216;51.248;6.808;2023-08-30T13:34:19;3.78;;;3.38;;
43248;SDS011;29216;51.248;6.808;2023-08-30T13:36:45;4.70;;;3.22;;
43248;SDS011;29216;51.248;6.808;2023-08-30T13:39:11;4.18;;;3.30;;
43248;SDS011;29216;51.248;6.808;2023-08-30T13:41:37;3.80;;;3.25;;
43248;SDS011;29216;51.248;6.808;2023-08-30T13:44:03;7.10;;;3.05;;
43248;SDS011;29216;51.248;6.808;2023-08-30T13:46:29;4.30;;;3.40;;
43248;SDS011;29216;51.248;6.808;2023-08-30T13:48:55;4.22;;;3.00;;
43248;SDS011;29216;51.248;6.808;2023-08-30T13:51:22;3.03;;;2.65;;
43248;SDS011;29216;51.248;6.808;2023-08-30T13:53:48;4.28;;;3.05;;
43248;SDS011;29216;51.248;6.808;2023-08-30T13:56:14;4.38;;;3.15;;
43248;SDS011;29216;51.248;6.808;2023-08-30T13:58:40;3.75;;;2.90;;
43248;SDS011;29216;51.248;6.808;2023-08-30T14:01:06;7.53;;;3.20;;
43248;SDS011;29216;51.248;6.808;2023-08-30T14:03:32;4.22;;;3.08;;
43248;SDS011;29216;51.248;6.808;2023-08-30T14:05:58;3.25;;;2.90;;
43248;SDS011;29216;51.248;6.808;2023-08-30T14:08:24;3.83;;;3.30;;
43248;SDS011;29216;51.248;6.808;2023-08-30T14:10:50;3.75;;;3.10;;
43248;SDS011;29216;51.248;6.808;2023-08-30T14:13:16;4.63;;;3.58;;
43248;SDS011;29216;51.248;6.808;2023-08-30T14:15:42;3.95;;;3.17;;
43248;SDS011;29216;51.248;6.808;2023-08-30T14:18:08;3.97;;;3.50;;
43248;SDS011;29216;51.248;6.808;2023-08-30T14:20:34;5.80;;;3.60;;
43248;SDS011;29216;51.248;6.808;2023-08-30T14:23:00;5.60;;;3.30;;
43248;SDS011;29216;51.248;6.808;2023-08-30T14:25:26;3.75;;;3.35;;
43248;SDS011;29216;51.248;6.808;2023-08-30T14:27:52;4.10;;;3.70;;
43248;SDS011;29216;51.248;6.808;2023-08-30T14:30:18;3.85;;;3.42;;
43248;SDS011;29216;51.248;6.808;2023-08-30T14:32:44;4.18;;;3.58;;
43248;SDS011;29216;51.248;6.808;2023-08-30T14:35:10;4.25;;;3.38;;
43248;SDS011;29216;51.248;6.808;2023-08-30T14:37:36;7.60;;;4.10;;
43248;SDS011;29216;51.248;6.808;2023-08-30T14:40:03;5.18;;;4.00;;
43248;SDS011;29216;51.248;6.808;2023-08-30T14:42:29;7.43;;;3.92;;
43248;SDS011;29216;51.248;6.808;2023-08-30T14:44:57;5.20;;;3.80;;